sensor_id;sensor_type;location;lat;lon;timestamp;pressure;altitude;pressure_sealevel;temperature;humidity
59829;BME280;45708;51.848;107.620;2023-02-03T00:02:38;95530.22;;;-19.59;66.06
59829;BME280;45708;51.848;107.620;2023-02-03T00:07:39;95533.91;;;-19.77;66.54
59829;BME280;45708;51.848;107.620;2023-02-03T00:12:40;95540.13;;;-19.97;66.68
59829;BME280;45708;51.848;107.620;2023-02-03T00:17:41;95547.59;;;-19.93;66.30
59829;BME280;45708;51.848;107.620;2023-02-03T00:22:42;95544.28;;;-19.95;66.55
59829;BME280;45708;51.848;107.620;2023-02-03T00:27:44;95548.25;;;-19.82;66.46
59829;BME280;45708;51.848;107.620;2023-02-03T00:32:44;95547.31;;;-19.78;66.61
59829;BME280;45708;51.848;107.620;2023-02-03T00:37:55;95549.00;;;-19.78;66.31
59829;BME280;45708;51.848;107.620;2023-02-03T00:42:57;95558.28;;;-19.80;66.26
59829;BME280;45708;51.848;107.620;2023-02-03T00:47:58;95545.72;;;-19.82;65.91
59829;BME280;45708;51.848;107.620;2023-02-03T00:52:59;95544.28;;;-19.95;66.19
59829;BME280;45708;51.848;107.620;2023-02-03T00:58:00;95566.03;;;-19.94;66.21
59829;BME280;45708;51.848;107.620;2023-02-03T01:03:01;95550.19;;;-19.97;66.03
59829;BME280;45708;51.848;107.620;2023-02-03T01:08:02;95564.06;;;-19.77;66.17
59829;BME280;45708;51.848;107.620;2023-02-03T01:13:03;95559.59;;;-19.62;66.14
59829;BME280;45708;51.848;107.620;2023-02-03T01:18:05;95563.09;;;-19.28;65.41
59829;BME280;45708;51.848;107.620;2023-02-03T01:23:06;95565.34;;;-18.74;64.24
59829;BME280;45708;51.848;107.620;2023-02-03T01:28:07;95570.88;;;-18.21;63.09
59829;BME280;45708;51.848;107.620;2023-02-03T01:33:07;95569.66;;;-17.72;62.24
59829;BME280;45708;51.848;107.620;2023-02-03T01:38:08;95564.88;;;-17.19;61.69
59829;BME280;45708;51.848;107.620;2023-02-03T01:43:10;95570.22;;;-16.99;60.84
59829;BME280;45708;51.848;107.620;2023-02-03T01:48:11;95569.91;;;-16.61;60.58
59829;BME280;45708;51.848;107.620;2023-02-03T01:53:11;95574.03;;;-16.86;60.68
59829;BME280;45708;51.848;107.620;2023-02-03T01:58:22;95566.44;;;-17.15;61.17
59829;BME280;45708;51.848;107.620;2023-02-03T02:03:33;95574.00;;;-17.46;61.78
59829;BME280;45708;51.848;107.620;2023-02-03T02:08:36;95570.97;;;-17.59;62.22
59829;BME280;45708;51.848;107.620;2023-02-03T02:13:40;95574.75;;;-17.43;61.92
59829;BME280;45708;51.848;107.620;2023-02-03T02:41:38;95548.31;;;-16.16;59.14
59829;BME280;45708;51.848;107.620;2023-02-03T02:46:54;95545.53;;;-16.63;59.95
59829;BME280;45708;51.848;107.620;2023-02-03T02:52:01;95526.47;;;-16.19;59.12
59829;BME280;45708;51.848;107.620;2023-02-03T02:57:05;95532.69;;;-16.29;59.18
59829;BME280;45708;51.848;107.620;2023-02-03T03:02:10;95535.41;;;-16.35;58.60
59829;BME280;45708;51.848;107.620;2023-02-03T03:07:18;95532.13;;;-16.37;58.83
59829;BME280;45708;51.848;107.620;2023-02-03T03:17:26;95517.50;;;-16.29;58.72
59829;BME280;45708;51.848;107.620;2023-02-03T03:22:33;95506.81;;;-16.37;58.33
59829;BME280;45708;51.848;107.620;2023-02-03T03:27:39;95511.19;;;-16.69;58.97
59829;BME280;45708;51.848;107.620;2023-02-03T03:32:41;95514.94;;;-16.54;59.39
59829;BME280;45708;51.848;107.620;2023-02-03T03:42:52;95509.00;;;-16.26;59.36
59829;BME280;45708;51.848;107.620;2023-02-03T03:48:04;95489.06;;;-16.09;59.48
59829;BME280;45708;51.848;107.620;2023-02-03T03:53:06;95481.66;;;-15.65;59.68
59829;BME280;45708;51.848;107.620;2023-02-03T03:58:12;95482.16;;;-15.56;59.15
59829;BME280;45708;51.848;107.620;2023-02-03T04:03:27;95479.19;;;-15.44;59.82
59829;BME280;45708;51.848;107.620;2023-02-03T04:08:30;95463.44;;;-15.05;58.77
59829;BME280;45708;51.848;107.620;2023-02-03T04:13:31;95454.97;;;-14.82;57.82
59829;BME280;45708;51.848;107.620;2023-02-03T04:18:32;95444.38;;;-14.92;58.00
59829;BME280;45708;51.848;107.620;2023-02-03T04:23:33;95451.19;;;-14.50;58.49
59829;BME280;45708;51.848;107.620;2023-02-03T04:28:34;95436.81;;;-13.89;56.93
59829;BME280;45708;51.848;107.620;2023-02-03T04:33:34;95435.75;;;-13.44;57.05
59829;BME280;45708;51.848;107.620;2023-02-03T04:38:35;95427.97;;;-12.84;56.80
59829;BME280;45708;51.848;107.620;2023-02-03T04:43:36;95413.34;;;-12.79;55.90
59829;BME280;45708;51.848;107.620;2023-02-03T04:48:37;95410.72;;;-12.78;55.70
59829;BME280;45708;51.848;107.620;2023-02-03T04:53:38;95406.06;;;-12.51;55.10
59829;BME280;45708;51.848;107.620;2023-02-03T04:58:38;95409.84;;;-12.06;55.08
59829;BME280;45708;51.848;107.620;2023-02-03T05:03:39;95398.66;;;-11.53;54.41
59829;BME280;45708;51.848;107.620;2023-02-03T05:08:41;95404.22;;;-11.62;54.04
59829;BME280;45708;51.848;107.620;2023-02-03T05:13:42;95391.75;;;-11.51;55.34
59829;BME280;45708;51.848;107.620;2023-02-03T05:18:43;95387.75;;;-11.73;55.21
59829;BME280;45708;51.848;107.620;2023-02-03T05:23:44;95382.94;;;-11.94;54.84
59829;BME280;45708;51.848;107.620;2023-02-03T05:28:45;95384.69;;;-12.12;55.86
59829;BME280;45708;51.848;107.620;2023-02-03T05:33:45;95379.28;;;-12.06;55.60
59829;BME280;45708;51.848;107.620;2023-02-03T05:38:47;95365.19;;;-11.96;55.40
59829;BME280;45708;51.848;107.620;2023-02-03T05:43:48;95367.72;;;-11.79;55.31
59829;BME280;45708;51.848;107.620;2023-02-03T05:48:49;95349.53;;;-11.40;55.01
59829;BME280;45708;51.848;107.620;2023-02-03T05:53:49;95335.19;;;-11.42;54.42
59829;BME280;45708;51.848;107.620;2023-02-03T05:58:50;95337.19;;;-11.31;54.25
59829;BME280;45708;51.848;107.620;2023-02-03T06:03:51;95337.69;;;-10.93;53.73
59829;BME280;45708;51.848;107.620;2023-02-03T06:08:52;95326.41;;;-10.89;54.70
59829;BME280;45708;51.848;107.620;2023-02-03T06:13:54;95331.25;;;-10.85;54.38
59829;BME280;45708;51.848;107.620;2023-02-03T06:18:55;95324.75;;;-10.90;54.59
59829;BME280;45708;51.848;107.620;2023-02-03T06:23:56;95311.16;;;-10.75;54.33
59829;BME280;45708;51.848;107.620;2023-02-03T06:28:58;95305.88;;;-10.42;53.73
59829;BME280;45708;51.848;107.620;2023-02-03T06:33:58;95306.00;;;-10.15;53.07
59829;BME280;45708;51.848;107.620;2023-02-03T06:38:59;95309.91;;;-10.38;53.68
59829;BME280;45708;51.848;107.620;2023-02-03T06:44:00;95298.97;;;-10.26;53.14
59829;BME280;45708;51.848;107.620;2023-02-03T06:49:01;95298.69;;;-10.35;53.17
59829;BME280;45708;51.848;107.620;2023-02-03T06:54:04;95286.75;;;-10.65;54.19
59829;BME280;45708;51.848;107.620;2023-02-03T06:59:05;95285.16;;;-10.52;54.59
59829;BME280;45708;51.848;107.620;2023-02-03T07:04:06;95273.16;;;-10.07;53.04
59829;BME280;45708;51.848;107.620;2023-02-03T07:09:08;95270.81;;;-9.96;52.55
59829;BME280;45708;51.848;107.620;2023-02-03T07:14:09;95261.03;;;-9.89;52.68
59829;BME280;45708;51.848;107.620;2023-02-03T07:19:10;95276.25;;;-10.16;51.81
59829;BME280;45708;51.848;107.620;2023-02-03T07:24:10;95283.38;;;-10.07;52.57
59829;BME280;45708;51.848;107.620;2023-02-03T07:29:11;95275.53;;;-10.18;54.00
59829;BME280;45708;51.848;107.620;2023-02-03T07:34:12;95277.72;;;-10.26;53.21
59829;BME280;45708;51.848;107.620;2023-02-03T07:39:13;95282.28;;;-10.17;52.64
59829;BME280;45708;51.848;107.620;2023-02-03T07:44:14;95285.00;;;-10.06;53.50
59829;BME280;45708;51.848;107.620;2023-02-03T07:49:14;95290.13;;;-10.06;53.56
59829;BME280;45708;51.848;107.620;2023-02-03T07:54:15;95289.50;;;-10.09;53.67
59829;BME280;45708;51.848;107.620;2023-02-03T07:59:16;95286.66;;;-10.05;53.20
59829;BME280;45708;51.848;107.620;2023-02-03T08:04:19;95279.38;;;-9.83;52.97
59829;BME280;45708;51.848;107.620;2023-02-03T08:09:19;95275.63;;;-9.63;52.87
59829;BME280;45708;51.848;107.620;2023-02-03T08:14:20;95287.94;;;-9.55;53.15
59829;BME280;45708;51.848;107.620;2023-02-03T08:19:21;95277.38;;;-9.77;52.94
59829;BME280;45708;51.848;107.620;2023-02-03T08:24:22;95279.75;;;-9.74;52.98
59829;BME280;45708;51.848;107.620;2023-02-03T08:29:23;95266.50;;;-9.95;53.70
59829;BME280;45708;51.848;107.620;2023-02-03T08:34:24;95275.00;;;-9.80;53.13
59829;BME280;45708;51.848;107.620;2023-02-03T08:39:24;95269.59;;;-9.62;54.19
59829;BME280;45708;51.848;107.620;2023-02-03T08:44:25;95265.47;;;-9.64;53.06
59829;BME280;45708;51.848;107.620;2023-02-03T08:49:28;95275.00;;;-9.80;53.63
59829;BME280;45708;51.848;107.620;2023-02-03T08:54:29;95268.97;;;-9.94;52.97
59829;BME280;45708;51.848;107.620;2023-02-03T08:59:30;95263.94;;;-10.09;53.40
59829;BME280;45708;51.848;107.620;2023-02-03T09:04:30;95268.06;;;-10.21;53.75
59829;BME280;45708;51.848;107.620;2023-02-03T09:09:31;95256.16;;;-10.51;54.60
59829;BME280;45708;51.848;107.620;2023-02-03T09:14:33;95269.28;;;-10.57;53.77
59829;BME280;45708;51.848;107.620;2023-02-03T09:19:34;95279.06;;;-10.79;54.09
59829;BME280;45708;51.848;107.620;2023-02-03T09:24:35;95280.38;;;-10.88;53.70
59829;BME280;45708;51.848;107.620;2023-02-03T09:29:36;95272.81;;;-10.89;53.75
59829;BME280;45708;51.848;107.620;2023-02-03T09:34:38;95265.59;;;-10.97;54.34
59829;BME280;45708;51.848;107.620;2023-02-03T09:39:39;95277.13;;;-11.06;54.64
59829;BME280;45708;51.848;107.620;2023-02-03T09:44:54;95270.88;;;-11.16;55.05
59829;BME280;45708;51.848;107.620;2023-02-03T09:50:05;95274.81;;;-11.26;55.57
59829;BME280;45708;51.848;107.620;2023-02-03T10:00:19;95285.38;;;-11.32;55.82
59829;BME280;45708;51.848;107.620;2023-02-03T10:05:42;95289.31;;;-11.42;56.10
59829;BME280;45708;51.848;107.620;2023-02-03T10:10:55;95289.06;;;-11.53;56.14
59829;BME280;45708;51.848;107.620;2023-02-03T10:16:21;95283.69;;;-11.64;56.05
59829;BME280;45708;51.848;107.620;2023-02-03T10:26:33;95280.56;;;-11.85;56.32
59829;BME280;45708;51.848;107.620;2023-02-03T10:31:43;95275.81;;;-11.91;56.62
59829;BME280;45708;51.848;107.620;2023-02-03T10:41:54;95277.13;;;-12.00;56.79
59829;BME280;45708;51.848;107.620;2023-02-03T10:46:56;95261.97;;;-12.03;56.71
59829;BME280;45708;51.848;107.620;2023-02-03T10:52:00;95264.50;;;-12.03;56.51
59829;BME280;45708;51.848;107.620;2023-02-03T10:57:03;95255.56;;;-12.10;57.36
59829;BME280;45708;51.848;107.620;2023-02-03T11:02:31;95250.47;;;-12.10;57.08
59829;BME280;45708;51.848;107.620;2023-02-03T11:07:31;95247.03;;;-12.09;56.68
59829;BME280;45708;51.848;107.620;2023-02-03T11:12:31;95234.44;;;-12.12;57.13
59829;BME280;45708;51.848;107.620;2023-02-03T11:17:35;95239.63;;;-12.14;56.80
59829;BME280;45708;51.848;107.620;2023-02-03T11:22:37;95234.16;;;-12.23;57.64
59829;BME280;45708;51.848;107.620;2023-02-03T11:27:39;95238.59;;;-12.27;57.23
59829;BME280;45708;51.848;107.620;2023-02-03T11:32:41;95222.31;;;-12.40;57.64
59829;BME280;45708;51.848;107.620;2023-02-03T11:37:48;95215.25;;;-12.35;57.49
59829;BME280;45708;51.848;107.620;2023-02-03T11:47:57;95230.88;;;-12.25;56.99
59829;BME280;45708;51.848;107.620;2023-02-03T11:53:15;95227.28;;;-12.21;56.88
59829;BME280;45708;51.848;107.620;2023-02-03T12:03:52;95217.94;;;-12.21;57.06
59829;BME280;45708;51.848;107.620;2023-02-03T12:14:12;95194.84;;;-12.18;57.97
59829;BME280;45708;51.848;107.620;2023-02-03T12:24:35;95184.59;;;-12.16;57.59
59829;BME280;45708;51.848;107.620;2023-02-03T12:29:42;95177.25;;;-12.22;57.57
59829;BME280;45708;51.848;107.620;2023-02-03T12:34:51;95169.47;;;-12.19;57.40
59829;BME280;45708;51.848;107.620;2023-02-03T12:39:54;95166.16;;;-12.21;57.19
59829;BME280;45708;51.848;107.620;2023-02-03T12:50:28;95171.91;;;-12.34;57.32
59829;BME280;45708;51.848;107.620;2023-02-03T12:56:02;95168.34;;;-12.47;57.29
59829;BME280;45708;51.848;107.620;2023-02-03T13:01:07;95157.91;;;-12.58;57.31
59829;BME280;45708;51.848;107.620;2023-02-03T13:16:39;95152.63;;;-12.71;56.98
59829;BME280;45708;51.848;107.620;2023-02-03T13:21:42;95166.25;;;-12.72;57.02
59829;BME280;45708;51.848;107.620;2023-02-03T13:37:49;95143.81;;;-12.48;57.13
59829;BME280;45708;51.848;107.620;2023-02-03T13:42:58;95135.09;;;-12.44;57.19
59829;BME280;45708;51.848;107.620;2023-02-03T13:48:17;95138.66;;;-12.31;57.05
59829;BME280;45708;51.848;107.620;2023-02-03T13:53:23;95133.84;;;-12.19;57.24
59829;BME280;45708;51.848;107.620;2023-02-03T13:58:31;95126.03;;;-12.16;56.73
59829;BME280;45708;51.848;107.620;2023-02-03T14:13:37;95124.22;;;-12.14;56.81
59829;BME280;45708;51.848;107.620;2023-02-03T14:18:44;95116.94;;;-12.20;56.67
59829;BME280;45708;51.848;107.620;2023-02-03T14:23:54;95115.34;;;-12.23;56.96
59829;BME280;45708;51.848;107.620;2023-02-03T14:28:57;95108.53;;;-12.22;57.02
59829;BME280;45708;51.848;107.620;2023-02-03T14:34:07;95113.78;;;-12.25;56.90
59829;BME280;45708;51.848;107.620;2023-02-03T14:55:08;95074.16;;;-12.63;57.63
59829;BME280;45708;51.848;107.620;2023-02-03T15:10:28;95056.88;;;-12.56;57.49
59829;BME280;45708;51.848;107.620;2023-02-03T15:15:31;95056.56;;;-12.50;56.80
59829;BME280;45708;51.848;107.620;2023-02-03T15:20:39;95060.91;;;-12.52;57.66
59829;BME280;45708;51.848;107.620;2023-02-03T15:25:40;95060.25;;;-12.55;56.86
59829;BME280;45708;51.848;107.620;2023-02-03T15:30:41;95054.81;;;-12.65;56.93
59829;BME280;45708;51.848;107.620;2023-02-03T15:35:44;95048.25;;;-12.69;57.21
59829;BME280;45708;51.848;107.620;2023-02-03T15:40:48;95042.91;;;-12.80;57.23
59829;BME280;45708;51.848;107.620;2023-02-03T15:46:07;95041.75;;;-12.91;57.35
59829;BME280;45708;51.848;107.620;2023-02-03T15:51:23;95028.69;;;-13.00;58.03
59829;BME280;45708;51.848;107.620;2023-02-03T15:56:38;95016.53;;;-13.11;57.23
59829;BME280;45708;51.848;107.620;2023-02-03T16:01:40;95013.41;;;-13.16;57.42
59829;BME280;45708;51.848;107.620;2023-02-03T16:06:45;95012.25;;;-13.26;57.23
59829;BME280;45708;51.848;107.620;2023-02-03T16:11:47;95004.97;;;-13.49;57.97
59829;BME280;45708;51.848;107.620;2023-02-03T16:16:49;94998.41;;;-13.71;57.40
59829;BME280;45708;51.848;107.620;2023-02-03T16:21:55;94991.84;;;-13.92;57.08
59829;BME280;45708;51.848;107.620;2023-02-03T16:32:26;94983.06;;;-14.20;58.38
59829;BME280;45708;51.848;107.620;2023-02-03T16:42:36;94977.81;;;-14.17;57.96
59829;BME280;45708;51.848;107.620;2023-02-03T16:47:38;94973.03;;;-14.23;58.32
59829;BME280;45708;51.848;107.620;2023-02-03T16:52:42;94968.19;;;-14.10;57.79
59829;BME280;45708;51.848;107.620;2023-02-03T16:57:42;94972.44;;;-14.10;58.09
59829;BME280;45708;51.848;107.620;2023-02-03T17:02:43;94967.13;;;-14.06;58.53
59829;BME280;45708;51.848;107.620;2023-02-03T17:07:44;94970.50;;;-14.05;57.34
59829;BME280;45708;51.848;107.620;2023-02-03T17:12:45;94961.13;;;-14.21;57.93
59829;BME280;45708;51.848;107.620;2023-02-03T17:17:46;94960.94;;;-14.35;58.21
59829;BME280;45708;51.848;107.620;2023-02-03T17:22:46;94955.94;;;-14.36;58.75
59829;BME280;45708;51.848;107.620;2023-02-03T17:27:47;94963.34;;;-14.32;58.11
59829;BME280;45708;51.848;107.620;2023-02-03T17:32:48;94959.00;;;-14.30;59.07
59829;BME280;45708;51.848;107.620;2023-02-03T17:37:49;94953.34;;;-14.18;59.04
59829;BME280;45708;51.848;107.620;2023-02-03T17:42:49;94971.13;;;-14.00;58.56
59829;BME280;45708;51.848;107.620;2023-02-03T17:47:50;94962.88;;;-13.88;58.46
59829;BME280;45708;51.848;107.620;2023-02-03T17:52:51;94968.28;;;-13.94;58.77
59829;BME280;45708;51.848;107.620;2023-02-03T17:57:52;94960.50;;;-14.08;58.37
59829;BME280;45708;51.848;107.620;2023-02-03T18:02:53;94965.56;;;-14.08;58.87
59829;BME280;45708;51.848;107.620;2023-02-03T18:07:54;94957.38;;;-14.14;58.85
59829;BME280;45708;51.848;107.620;2023-02-03T18:12:55;94952.38;;;-14.15;58.31
59829;BME280;45708;51.848;107.620;2023-02-03T18:17:56;94946.63;;;-14.19;59.66
59829;BME280;45708;51.848;107.620;2023-02-03T18:22:57;94938.72;;;-14.13;58.66
59829;BME280;45708;51.848;107.620;2023-02-03T18:27:57;94957.22;;;-14.10;58.59
59829;BME280;45708;51.848;107.620;2023-02-03T18:32:58;94956.47;;;-13.95;59.36
59829;BME280;45708;51.848;107.620;2023-02-03T18:38:00;94945.59;;;-13.97;59.00
59829;BME280;45708;51.848;107.620;2023-02-03T18:43:01;94954.09;;;-13.98;58.71
59829;BME280;45708;51.848;107.620;2023-02-03T18:48:02;94945.59;;;-14.15;59.27
59829;BME280;45708;51.848;107.620;2023-02-03T18:53:04;94946.75;;;-14.22;58.95
59829;BME280;45708;51.848;107.620;2023-02-03T18:58:05;94947.13;;;-14.29;59.33
59829;BME280;45708;51.848;107.620;2023-02-03T19:03:05;94928.28;;;-14.41;59.74
59829;BME280;45708;51.848;107.620;2023-02-03T19:08:07;94931.22;;;-14.67;59.03
59829;BME280;45708;51.848;107.620;2023-02-03T19:13:08;94945.41;;;-14.81;59.00
59829;BME280;45708;51.848;107.620;2023-02-03T19:18:08;94934.97;;;-14.74;60.50
59829;BME280;45708;51.848;107.620;2023-02-03T19:23:12;94941.16;;;-14.80;59.38
59829;BME280;45708;51.848;107.620;2023-02-03T19:28:13;94925.53;;;-14.90;60.05
59829;BME280;45708;51.848;107.620;2023-02-03T19:33:14;94921.50;;;-14.94;59.83
59829;BME280;45708;51.848;107.620;2023-02-03T19:38:16;94918.38;;;-14.82;59.75
59829;BME280;45708;51.848;107.620;2023-02-03T19:43:17;94928.94;;;-14.91;59.75
59829;BME280;45708;51.848;107.620;2023-02-03T19:48:18;94861.34;;;-16.02;59.79
59829;BME280;45708;51.848;107.620;2023-02-03T19:53:19;94937.38;;;-16.05;60.50
59829;BME280;45708;51.848;107.620;2023-02-03T19:58:20;94914.59;;;-16.66;61.40
59829;BME280;45708;51.848;107.620;2023-02-03T20:03:22;94896.00;;;-17.05;61.40
59829;BME280;45708;51.848;107.620;2023-02-03T20:08:23;94903.16;;;-17.16;61.52
59829;BME280;45708;51.848;107.620;2023-02-03T20:13:24;94808.53;;;-17.94;61.01
59829;BME280;45708;51.848;107.620;2023-02-03T20:18:25;94844.25;;;-17.82;61.50
59829;BME280;45708;51.848;107.620;2023-02-03T20:23:26;94771.41;;;-18.35;61.78
59829;BME280;45708;51.848;107.620;2023-02-03T20:28:28;94788.94;;;-18.09;62.05
59829;BME280;45708;51.848;107.620;2023-02-03T20:33:29;94867.28;;;-17.68;62.61
59829;BME280;45708;51.848;107.620;2023-02-03T20:38:30;94883.03;;;-17.63;63.00
59829;BME280;45708;51.848;107.620;2023-02-03T20:43:31;94805.81;;;-18.34;63.24
59829;BME280;45708;51.848;107.620;2023-02-03T20:48:31;94824.22;;;-18.09;62.50
59829;BME280;45708;51.848;107.620;2023-02-03T20:53:32;94871.09;;;-17.58;62.91
59829;BME280;45708;51.848;107.620;2023-02-03T20:58:34;94865.69;;;-17.49;62.82
59829;BME280;45708;51.848;107.620;2023-02-03T21:03:35;94875.66;;;-17.46;62.60
59829;BME280;45708;51.848;107.620;2023-02-03T21:08:35;94766.41;;;-18.13;62.65
59829;BME280;45708;51.848;107.620;2023-02-03T21:13:36;94805.03;;;-17.90;63.43
59829;BME280;45708;51.848;107.620;2023-02-03T21:18:42;94869.03;;;-17.70;63.57
59829;BME280;45708;51.848;107.620;2023-02-03T21:23:44;94892.09;;;-17.79;63.65
59829;BME280;45708;51.848;107.620;2023-02-03T21:28:56;94872.78;;;-18.04;63.68
59829;BME280;45708;51.848;107.620;2023-02-03T21:34:13;94887.72;;;-17.98;63.68
59829;BME280;45708;51.848;107.620;2023-02-03T21:44:33;94818.63;;;-18.64;64.12
59829;BME280;45708;51.848;107.620;2023-02-03T21:49:34;94872.09;;;-18.32;64.40
59829;BME280;45708;51.848;107.620;2023-02-03T21:54:35;94820.16;;;-18.60;64.49
59829;BME280;45708;51.848;107.620;2023-02-03T21:59:38;94838.69;;;-18.37;64.28
59829;BME280;45708;51.848;107.620;2023-02-03T22:04:39;94753.84;;;-19.09;64.08
59829;BME280;45708;51.848;107.620;2023-02-03T22:09:39;94844.25;;;-18.76;64.16
59829;BME280;45708;51.848;107.620;2023-02-03T22:14:40;94822.41;;;-19.00;64.60
59829;BME280;45708;51.848;107.620;2023-02-03T22:19:41;94732.09;;;-19.59;64.38
59829;BME280;45708;51.848;107.620;2023-02-03T22:24:42;94870.59;;;-18.61;63.96
59829;BME280;45708;51.848;107.620;2023-02-03T22:29:43;94822.47;;;-19.03;64.28
59829;BME280;45708;51.848;107.620;2023-02-03T22:34:44;94839.66;;;-18.90;64.77
59829;BME280;45708;51.848;107.620;2023-02-03T22:39:47;94852.97;;;-18.86;65.27
59829;BME280;45708;51.848;107.620;2023-02-03T22:44:49;94884.59;;;-18.77;64.79
59829;BME280;45708;51.848;107.620;2023-02-03T22:49:49;94826.16;;;-19.14;64.93
59829;BME280;45708;51.848;107.620;2023-02-03T22:54:50;94870.94;;;-18.97;64.99
59829;BME280;45708;51.848;107.620;2023-02-03T22:59:51;94865.84;;;-18.95;65.19
59829;BME280;45708;51.848;107.620;2023-02-03T23:04:52;94781.41;;;-19.55;65.37
59829;BME280;45708;51.848;107.620;2023-02-03T23:09:53;94848.28;;;-19.23;65.19
59829;BME280;45708;51.848;107.620;2023-02-03T23:14:53;94894.88;;;-18.85;65.24
59829;BME280;45708;51.848;107.620;2023-02-03T23:19:54;94901.09;;;-18.95;65.76
59829;BME280;45708;51.848;107.620;2023-02-03T23:24:55;94912.97;;;-18.99;65.27
59829;BME280;45708;51.848;107.620;2023-02-03T23:29:56;94874.97;;;-19.18;65.48
59829;BME280;45708;51.848;107.620;2023-02-03T23:34:57;94839.53;;;-19.38;65.38
59829;BME280;45708;51.848;107.620;2023-02-03T23:39:58;94919.69;;;-18.73;65.49
59829;BME280;45708;51.848;107.620;2023-02-03T23:44:59;94908.53;;;-18.66;65.47
59829;BME280;45708;51.848;107.620;2023-02-03T23:49:59;94825.78;;;-19.01;64.90
59829;BME280;45708;51.848;107.620;2023-02-03T23:55:05;94716.34;;;-19.66;65.51
